sensor_id;sensor_type;location;lat;lon;timestamp;P1;durP1;ratioP1;P2;durP2;ratioP2
21527;SDS011;10925;49.102;-0.370;2022-09-09T00:16:59;11.45;;;2.22;;
21527;SDS011;10925;49.102;-0.370;2022-09-09T00:22:04;14.38;;;2.22;;
21527;SDS011;10925;49.102;-0.370;2022-09-09T00:32:15;14.50;;;2.85;;
21527;SDS011;10925;49.102;-0.370;2022-09-09T00:34:50;10.30;;;2.20;;
21527;SDS011;10925;49.102;-0.370;2022-09-09T00:37:17;10.57;;;2.30;;
21527;SDS011;10925;49.102;-0.370;2022-09-09T00:39:44;17.38;;;3.10;;
21527;SDS011;10925;49.102;-0.370;2022-09-09T00:44:50;10.00;;;2.28;;
21527;SDS011;10925;49.102;-0.370;2022-09-09T00:55:21;9.73;;;2.65;;
21527;SDS011;10925;49.102;-0.370;2022-09-09T00:57:52;9.57;;;2.53;;
21527;SDS011;10925;49.102;-0.370;2022-09-09T01:05:45;10.13;;;2.30;;
21527;SDS011;10925;49.102;-0.370;2022-09-09T01:10:58;11.13;;;2.55;;
21527;SDS011;10925;49.102;-0.370;2022-09-09T01:13:29;13.40;;;2.95;;
21527;SDS011;10925;49.102;-0.370;2022-09-09T01:15:57;13.05;;;2.70;;
21527;SDS011;10925;49.102;-0.370;2022-09-09T01:18:28;14.90;;;2.20;;
21527;SDS011;10925;49.102;-0.370;2022-09-09T01:23:44;14.82;;;2.67;;
21527;SDS011;10925;49.102;-0.370;2022-09-09T01:26:41;10.52;;;2.08;;
21527;SDS011;10925;49.102;-0.370;2022-09-09T01:29:09;13.77;;;2.20;;
21527;SDS011;10925;49.102;-0.370;2022-09-09T01:31:39;14.82;;;2.40;;
21527;SDS011;10925;49.102;-0.370;2022-09-09T01:34:12;11.63;;;2.25;;
21527;SDS011;10925;49.102;-0.370;2022-09-09T01:39:09;11.50;;;2.88;;
21527;SDS011;10925;49.102;-0.370;2022-09-09T01:41:38;11.18;;;2.00;;
21527;SDS011;10925;49.102;-0.370;2022-09-09T01:44:08;12.40;;;2.80;;
21527;SDS011;10925;49.102;-0.370;2022-09-09T01:46:35;16.20;;;2.40;;
21527;SDS011;10925;49.102;-0.370;2022-09-09T01:49:04;14.30;;;2.80;;
21527;SDS011;10925;49.102;-0.370;2022-09-09T01:51:31;11.48;;;2.35;;
21527;SDS011;10925;49.102;-0.370;2022-09-09T01:54:02;9.75;;;2.55;;
21527;SDS011;10925;49.102;-0.370;2022-09-09T02:04:18;8.77;;;2.55;;
21527;SDS011;10925;49.102;-0.370;2022-09-09T02:06:48;11.10;;;2.10;;
21527;SDS011;10925;49.102;-0.370;2022-09-09T02:09:23;10.15;;;2.42;;
21527;SDS011;10925;49.102;-0.370;2022-09-09T02:11:51;10.40;;;2.20;;
21527;SDS011;10925;49.102;-0.370;2022-09-09T02:14:36;12.15;;;2.08;;
21527;SDS011;10925;49.102;-0.370;2022-09-09T02:17:09;13.00;;;2.55;;
21527;SDS011;10925;49.102;-0.370;2022-09-09T02:19:36;10.57;;;2.50;;
21527;SDS011;10925;49.102;-0.370;2022-09-09T02:22:02;12.80;;;2.38;;
21527;SDS011;10925;49.102;-0.370;2022-09-09T02:24:32;15.13;;;2.42;;
21527;SDS011;10925;49.102;-0.370;2022-09-09T02:27:26;11.68;;;1.85;;
21527;SDS011;10925;49.102;-0.370;2022-09-09T02:29:54;14.27;;;2.47;;
21527;SDS011;10925;49.102;-0.370;2022-09-09T02:32:37;19.30;;;3.17;;
21527;SDS011;10925;49.102;-0.370;2022-09-09T02:35:12;9.52;;;2.42;;
21527;SDS011;10925;49.102;-0.370;2022-09-09T02:37:41;15.60;;;2.65;;
21527;SDS011;10925;49.102;-0.370;2022-09-09T02:40:07;14.25;;;2.95;;
21527;SDS011;10925;49.102;-0.370;2022-09-09T02:42:40;14.98;;;2.53;;
21527;SDS011;10925;49.102;-0.370;2022-09-09T02:45:08;15.85;;;2.63;;
21527;SDS011;10925;49.102;-0.370;2022-09-09T02:47:35;15.00;;;2.85;;
21527;SDS011;10925;49.102;-0.370;2022-09-09T02:57:59;12.07;;;2.30;;
21527;SDS011;10925;49.102;-0.370;2022-09-09T03:00:26;15.80;;;2.67;;
21527;SDS011;10925;49.102;-0.370;2022-09-09T03:02:58;9.35;;;2.33;;
21527;SDS011;10925;49.102;-0.370;2022-09-09T03:05:25;16.92;;;2.70;;
21527;SDS011;10925;49.102;-0.370;2022-09-09T03:07:52;12.02;;;2.50;;
21527;SDS011;10925;49.102;-0.370;2022-09-09T03:10:19;10.82;;;2.13;;
21527;SDS011;10925;49.102;-0.370;2022-09-09T03:12:46;14.82;;;2.83;;
21527;SDS011;10925;49.102;-0.370;2022-09-09T03:15:13;13.43;;;2.20;;
21527;SDS011;10925;49.102;-0.370;2022-09-09T03:17:41;14.10;;;2.30;;
21527;SDS011;10925;49.102;-0.370;2022-09-09T03:20:08;15.80;;;2.88;;
21527;SDS011;10925;49.102;-0.370;2022-09-09T03:22:36;12.75;;;2.53;;
21527;SDS011;10925;49.102;-0.370;2022-09-09T03:25:02;11.82;;;2.22;;
21527;SDS011;10925;49.102;-0.370;2022-09-09T03:27:31;12.25;;;3.17;;
21527;SDS011;10925;49.102;-0.370;2022-09-09T03:29:56;8.60;;;2.50;;
21527;SDS011;10925;49.102;-0.370;2022-09-09T03:32:24;13.45;;;2.35;;
21527;SDS011;10925;49.102;-0.370;2022-09-09T03:34:55;14.43;;;2.20;;
21527;SDS011;10925;49.102;-0.370;2022-09-09T03:37:22;13.00;;;2.95;;
21527;SDS011;10925;49.102;-0.370;2022-09-09T03:39:49;10.48;;;2.65;;
21527;SDS011;10925;49.102;-0.370;2022-09-09T03:42:16;11.90;;;2.83;;
21527;SDS011;10925;49.102;-0.370;2022-09-09T03:44:46;16.05;;;3.38;;
21527;SDS011;10925;49.102;-0.370;2022-09-09T03:47:19;16.35;;;2.92;;
21527;SDS011;10925;49.102;-0.370;2022-09-09T03:49:50;11.88;;;2.33;;
21527;SDS011;10925;49.102;-0.370;2022-09-09T03:52:16;17.75;;;3.60;;
21527;SDS011;10925;49.102;-0.370;2022-09-09T03:54:49;17.95;;;3.50;;
21527;SDS011;10925;49.102;-0.370;2022-09-09T03:57:16;13.23;;;3.10;;
21527;SDS011;10925;49.102;-0.370;2022-09-09T03:59:42;16.08;;;3.72;;
21527;SDS011;10925;49.102;-0.370;2022-09-09T04:02:09;15.23;;;3.42;;
21527;SDS011;10925;49.102;-0.370;2022-09-09T04:04:36;15.95;;;3.05;;
21527;SDS011;10925;49.102;-0.370;2022-09-09T04:07:02;16.10;;;3.08;;
21527;SDS011;10925;49.102;-0.370;2022-09-09T04:09:27;18.05;;;3.28;;
21527;SDS011;10925;49.102;-0.370;2022-09-09T04:11:55;11.25;;;2.92;;
21527;SDS011;10925;49.102;-0.370;2022-09-09T04:14:21;14.18;;;2.75;;
21527;SDS011;10925;49.102;-0.370;2022-09-09T04:16:48;15.73;;;2.70;;
21527;SDS011;10925;49.102;-0.370;2022-09-09T04:19:15;14.98;;;2.78;;
21527;SDS011;10925;49.102;-0.370;2022-09-09T04:21:42;10.73;;;2.88;;
21527;SDS011;10925;49.102;-0.370;2022-09-09T04:24:08;20.48;;;3.20;;
21527;SDS011;10925;49.102;-0.370;2022-09-09T04:26:36;13.90;;;2.85;;
21527;SDS011;10925;49.102;-0.370;2022-09-09T04:29:03;22.95;;;3.38;;
21527;SDS011;10925;49.102;-0.370;2022-09-09T04:31:29;10.27;;;2.67;;
21527;SDS011;10925;49.102;-0.370;2022-09-09T04:33:56;16.65;;;2.60;;
21527;SDS011;10925;49.102;-0.370;2022-09-09T04:36:24;12.10;;;2.65;;
21527;SDS011;10925;49.102;-0.370;2022-09-09T04:38:51;8.07;;;2.08;;
21527;SDS011;10925;49.102;-0.370;2022-09-09T04:41:18;8.68;;;1.80;;
21527;SDS011;10925;49.102;-0.370;2022-09-09T04:43:49;10.63;;;2.05;;
21527;SDS011;10925;49.102;-0.370;2022-09-09T04:46:15;9.35;;;2.22;;
21527;SDS011;10925;49.102;-0.370;2022-09-09T04:48:43;12.07;;;2.80;;
21527;SDS011;10925;49.102;-0.370;2022-09-09T04:51:12;18.90;;;3.35;;
21527;SDS011;10925;49.102;-0.370;2022-09-09T04:53:39;10.05;;;2.22;;
21527;SDS011;10925;49.102;-0.370;2022-09-09T04:56:09;12.80;;;2.17;;
21527;SDS011;10925;49.102;-0.370;2022-09-09T04:58:35;9.90;;;2.35;;
21527;SDS011;10925;49.102;-0.370;2022-09-09T05:01:05;9.18;;;2.15;;
21527;SDS011;10925;49.102;-0.370;2022-09-09T05:03:32;9.00;;;2.05;;
21527;SDS011;10925;49.102;-0.370;2022-09-09T05:06:04;10.38;;;2.08;;
21527;SDS011;10925;49.102;-0.370;2022-09-09T05:08:31;7.15;;;2.05;;
21527;SDS011;10925;49.102;-0.370;2022-09-09T05:10:58;7.32;;;2.10;;
21527;SDS011;10925;49.102;-0.370;2022-09-09T05:13:26;6.13;;;1.83;;
21527;SDS011;10925;49.102;-0.370;2022-09-09T05:15:53;9.55;;;2.08;;
21527;SDS011;10925;49.102;-0.370;2022-09-09T05:18:19;4.82;;;1.50;;
21527;SDS011;10925;49.102;-0.370;2022-09-09T05:20:46;6.95;;;1.88;;
21527;SDS011;10925;49.102;-0.370;2022-09-09T05:23:13;7.93;;;1.70;;
21527;SDS011;10925;49.102;-0.370;2022-09-09T05:25:39;6.72;;;1.85;;
21527;SDS011;10925;49.102;-0.370;2022-09-09T05:28:06;7.13;;;1.98;;
21527;SDS011;10925;49.102;-0.370;2022-09-09T05:30:34;6.32;;;2.30;;
21527;SDS011;10925;49.102;-0.370;2022-09-09T05:33:04;13.82;;;2.60;;
21527;SDS011;10925;49.102;-0.370;2022-09-09T05:35:29;11.40;;;2.30;;
21527;SDS011;10925;49.102;-0.370;2022-09-09T05:37:58;16.23;;;2.72;;
21527;SDS011;10925;49.102;-0.370;2022-09-09T05:40:25;15.52;;;2.97;;
21527;SDS011;10925;49.102;-0.370;2022-09-09T05:42:51;9.50;;;2.20;;
21527;SDS011;10925;49.102;-0.370;2022-09-09T05:45:19;8.75;;;2.10;;
21527;SDS011;10925;49.102;-0.370;2022-09-09T05:47:50;9.63;;;2.35;;
21527;SDS011;10925;49.102;-0.370;2022-09-09T05:50:17;14.05;;;3.10;;
21527;SDS011;10925;49.102;-0.370;2022-09-09T05:52:44;12.88;;;3.08;;
21527;SDS011;10925;49.102;-0.370;2022-09-09T05:55:11;15.73;;;2.78;;
21527;SDS011;10925;49.102;-0.370;2022-09-09T05:57:36;8.10;;;2.80;;
21527;SDS011;10925;49.102;-0.370;2022-09-09T06:00:02;13.55;;;2.90;;
21527;SDS011;10925;49.102;-0.370;2022-09-09T06:02:27;17.45;;;3.33;;
21527;SDS011;10925;49.102;-0.370;2022-09-09T06:04:54;11.80;;;2.88;;
21527;SDS011;10925;49.102;-0.370;2022-09-09T06:07:26;11.82;;;2.80;;
21527;SDS011;10925;49.102;-0.370;2022-09-09T06:09:53;11.70;;;2.92;;
21527;SDS011;10925;49.102;-0.370;2022-09-09T06:12:20;12.50;;;3.00;;
21527;SDS011;10925;49.102;-0.370;2022-09-09T06:14:47;8.90;;;2.92;;
21527;SDS011;10925;49.102;-0.370;2022-09-09T06:17:14;15.35;;;3.65;;
21527;SDS011;10925;49.102;-0.370;2022-09-09T06:19:41;16.80;;;3.13;;
21527;SDS011;10925;49.102;-0.370;2022-09-09T06:22:07;21.60;;;3.13;;
21527;SDS011;10925;49.102;-0.370;2022-09-09T06:24:37;11.82;;;3.03;;
21527;SDS011;10925;49.102;-0.370;2022-09-09T06:27:03;17.95;;;3.45;;
21527;SDS011;10925;49.102;-0.370;2022-09-09T06:29:30;21.00;;;3.47;;
21527;SDS011;10925;49.102;-0.370;2022-09-09T06:31:55;18.13;;;3.70;;
21527;SDS011;10925;49.102;-0.370;2022-09-09T06:34:25;18.65;;;3.78;;
21527;SDS011;10925;49.102;-0.370;2022-09-09T06:36:55;26.00;;;3.78;;
21527;SDS011;10925;49.102;-0.370;2022-09-09T06:39:27;19.25;;;3.50;;
21527;SDS011;10925;49.102;-0.370;2022-09-09T06:41:54;24.60;;;4.55;;
21527;SDS011;10925;49.102;-0.370;2022-09-09T06:44:21;26.90;;;4.38;;
21527;SDS011;10925;49.102;-0.370;2022-09-09T06:46:47;23.83;;;3.67;;
21527;SDS011;10925;49.102;-0.370;2022-09-09T06:49:14;21.95;;;3.83;;
21527;SDS011;10925;49.102;-0.370;2022-09-09T06:51:41;18.65;;;3.45;;
21527;SDS011;10925;49.102;-0.370;2022-09-09T06:54:11;15.30;;;4.03;;
21527;SDS011;10925;49.102;-0.370;2022-09-09T06:56:40;20.90;;;3.70;;
21527;SDS011;10925;49.102;-0.370;2022-09-09T06:59:08;27.05;;;3.33;;
21527;SDS011;10925;49.102;-0.370;2022-09-09T07:01:37;24.58;;;3.58;;
21527;SDS011;10925;49.102;-0.370;2022-09-09T07:04:08;21.15;;;4.20;;
21527;SDS011;10925;49.102;-0.370;2022-09-09T07:06:43;17.70;;;3.20;;
21527;SDS011;10925;49.102;-0.370;2022-09-09T07:09:11;17.98;;;4.20;;
21527;SDS011;10925;49.102;-0.370;2022-09-09T07:11:38;20.55;;;3.95;;
21527;SDS011;10925;49.102;-0.370;2022-09-09T07:14:05;22.70;;;3.58;;
21527;SDS011;10925;49.102;-0.370;2022-09-09T07:16:32;18.25;;;3.00;;
21527;SDS011;10925;49.102;-0.370;2022-09-09T07:18:58;19.92;;;3.75;;
21527;SDS011;10925;49.102;-0.370;2022-09-09T07:21:24;19.63;;;3.50;;
21527;SDS011;10925;49.102;-0.370;2022-09-09T07:23:53;17.83;;;3.42;;
21527;SDS011;10925;49.102;-0.370;2022-09-09T07:26:23;15.90;;;3.03;;
21527;SDS011;10925;49.102;-0.370;2022-09-09T07:28:49;16.73;;;3.90;;
21527;SDS011;10925;49.102;-0.370;2022-09-09T07:31:20;27.77;;;3.67;;
21527;SDS011;10925;49.102;-0.370;2022-09-09T07:33:46;23.33;;;3.38;;
21527;SDS011;10925;49.102;-0.370;2022-09-09T07:36:17;19.52;;;3.28;;
21527;SDS011;10925;49.102;-0.370;2022-09-09T07:41:48;20.63;;;3.72;;
21527;SDS011;10925;49.102;-0.370;2022-09-09T07:44:19;19.77;;;3.50;;
21527;SDS011;10925;49.102;-0.370;2022-09-09T07:46:47;23.92;;;3.53;;
21527;SDS011;10925;49.102;-0.370;2022-09-09T07:49:14;13.27;;;3.35;;
21527;SDS011;10925;49.102;-0.370;2022-09-09T07:51:41;15.25;;;3.80;;
21527;SDS011;10925;49.102;-0.370;2022-09-09T07:54:09;14.82;;;3.70;;
21527;SDS011;10925;49.102;-0.370;2022-09-09T07:56:40;20.60;;;3.90;;
21527;SDS011;10925;49.102;-0.370;2022-09-09T07:59:06;17.40;;;3.45;;
21527;SDS011;10925;49.102;-0.370;2022-09-09T08:01:41;18.05;;;3.70;;
21527;SDS011;10925;49.102;-0.370;2022-09-09T08:04:11;24.08;;;4.00;;
21527;SDS011;10925;49.102;-0.370;2022-09-09T08:06:42;19.13;;;3.65;;
21527;SDS011;10925;49.102;-0.370;2022-09-09T08:09:08;23.30;;;3.38;;
21527;SDS011;10925;49.102;-0.370;2022-09-09T08:11:36;19.70;;;3.17;;
21527;SDS011;10925;49.102;-0.370;2022-09-09T08:14:03;20.23;;;3.45;;
21527;SDS011;10925;49.102;-0.370;2022-09-09T08:16:31;19.23;;;3.55;;
21527;SDS011;10925;49.102;-0.370;2022-09-09T08:18:59;20.50;;;3.45;;
21527;SDS011;10925;49.102;-0.370;2022-09-09T08:21:27;17.48;;;3.47;;
21527;SDS011;10925;49.102;-0.370;2022-09-09T08:23:57;20.38;;;3.90;;
21527;SDS011;10925;49.102;-0.370;2022-09-09T08:26:24;16.70;;;3.70;;
21527;SDS011;10925;49.102;-0.370;2022-09-09T08:28:52;26.17;;;4.72;;
21527;SDS011;10925;49.102;-0.370;2022-09-09T08:31:22;16.15;;;3.33;;
21527;SDS011;10925;49.102;-0.370;2022-09-09T08:33:50;19.77;;;3.38;;
21527;SDS011;10925;49.102;-0.370;2022-09-09T08:36:20;14.75;;;3.65;;
21527;SDS011;10925;49.102;-0.370;2022-09-09T08:38:47;18.55;;;3.55;;
21527;SDS011;10925;49.102;-0.370;2022-09-09T08:41:32;21.08;;;3.95;;
21527;SDS011;10925;49.102;-0.370;2022-09-09T08:44:05;18.80;;;3.10;;
21527;SDS011;10925;49.102;-0.370;2022-09-09T08:46:42;18.92;;;3.65;;
21527;SDS011;10925;49.102;-0.370;2022-09-09T08:49:37;14.68;;;3.72;;
21527;SDS011;10925;49.102;-0.370;2022-09-09T08:51:56;12.85;;;3.90;;
21527;SDS011;10925;49.102;-0.370;2022-09-09T08:54:23;17.05;;;3.60;;
21527;SDS011;10925;49.102;-0.370;2022-09-09T08:56:48;13.52;;;3.40;;
21527;SDS011;10925;49.102;-0.370;2022-09-09T08:59:14;13.43;;;2.45;;
21527;SDS011;10925;49.102;-0.370;2022-09-09T09:13:03;10.45;;;2.20;;
21527;SDS011;10925;49.102;-0.370;2022-09-09T09:15:33;11.95;;;2.45;;
21527;SDS011;10925;49.102;-0.370;2022-09-09T09:18:03;13.60;;;2.10;;
21527;SDS011;10925;49.102;-0.370;2022-09-09T09:20:35;12.07;;;2.33;;
21527;SDS011;10925;49.102;-0.370;2022-09-09T09:23:04;5.60;;;2.30;;
21527;SDS011;10925;49.102;-0.370;2022-09-09T09:25:33;11.38;;;2.70;;
21527;SDS011;10925;49.102;-0.370;2022-09-09T09:30:58;11.85;;;2.63;;
21527;SDS011;10925;49.102;-0.370;2022-09-09T09:35:54;9.35;;;2.33;;
21527;SDS011;10925;49.102;-0.370;2022-09-09T09:38:25;6.25;;;2.05;;
21527;SDS011;10925;49.102;-0.370;2022-09-09T09:40:52;7.47;;;2.30;;
21527;SDS011;10925;49.102;-0.370;2022-09-09T09:43:35;9.73;;;2.72;;
21527;SDS011;10925;49.102;-0.370;2022-09-09T09:46:18;10.50;;;2.40;;
21527;SDS011;10925;49.102;-0.370;2022-09-09T09:48:55;9.98;;;2.38;;
21527;SDS011;10925;49.102;-0.370;2022-09-09T09:51:22;10.13;;;2.58;;
21527;SDS011;10925;49.102;-0.370;2022-09-09T09:53:50;5.65;;;2.05;;
21527;SDS011;10925;49.102;-0.370;2022-09-09T09:56:26;9.13;;;2.80;;
21527;SDS011;10925;49.102;-0.370;2022-09-09T09:58:55;12.70;;;2.80;;
21527;SDS011;10925;49.102;-0.370;2022-09-09T10:01:31;16.95;;;3.10;;
21527;SDS011;10925;49.102;-0.370;2022-09-09T10:04:02;9.50;;;2.83;;
21527;SDS011;10925;49.102;-0.370;2022-09-09T10:06:32;17.30;;;3.72;;
21527;SDS011;10925;49.102;-0.370;2022-09-09T10:08:58;12.43;;;3.10;;
21527;SDS011;10925;49.102;-0.370;2022-09-09T10:16:48;9.93;;;3.30;;
21527;SDS011;10925;49.102;-0.370;2022-09-09T10:19:29;8.55;;;2.90;;
21527;SDS011;10925;49.102;-0.370;2022-09-09T10:22:04;10.32;;;2.78;;
21527;SDS011;10925;49.102;-0.370;2022-09-09T10:27:10;6.43;;;2.95;;
21527;SDS011;10925;49.102;-0.370;2022-09-09T10:32:56;9.77;;;2.80;;
21527;SDS011;10925;49.102;-0.370;2022-09-09T10:37:41;12.20;;;2.60;;
21527;SDS011;10925;49.102;-0.370;2022-09-09T10:42:46;6.53;;;2.10;;
21527;SDS011;10925;49.102;-0.370;2022-09-09T10:55:13;5.95;;;1.50;;
21527;SDS011;10925;49.102;-0.370;2022-09-09T10:57:41;5.88;;;1.73;;
21527;SDS011;10925;49.102;-0.370;2022-09-09T11:00:17;5.95;;;1.30;;
21527;SDS011;10925;49.102;-0.370;2022-09-09T11:02:43;7.50;;;1.90;;
21527;SDS011;10925;49.102;-0.370;2022-09-09T11:05:14;4.88;;;1.50;;
21527;SDS011;10925;49.102;-0.370;2022-09-09T11:07:44;6.82;;;1.95;;
21527;SDS011;10925;49.102;-0.370;2022-09-09T11:10:21;8.77;;;2.00;;
21527;SDS011;10925;49.102;-0.370;2022-09-09T11:15:16;6.20;;;2.13;;
21527;SDS011;10925;49.102;-0.370;2022-09-09T11:17:46;8.25;;;2.22;;
21527;SDS011;10925;49.102;-0.370;2022-09-09T11:20:15;9.60;;;2.53;;
21527;SDS011;10925;49.102;-0.370;2022-09-09T11:22:47;10.40;;;2.40;;
21527;SDS011;10925;49.102;-0.370;2022-09-09T11:25:21;8.98;;;2.00;;
21527;SDS011;10925;49.102;-0.370;2022-09-09T11:30:28;11.68;;;2.95;;
21527;SDS011;10925;49.102;-0.370;2022-09-09T11:38:45;13.30;;;2.90;;
21527;SDS011;10925;49.102;-0.370;2022-09-09T11:41:17;17.25;;;2.58;;
21527;SDS011;10925;49.102;-0.370;2022-09-09T11:43:45;10.35;;;2.75;;
21527;SDS011;10925;49.102;-0.370;2022-09-09T11:46:13;14.45;;;3.38;;
21527;SDS011;10925;49.102;-0.370;2022-09-09T11:48:42;15.43;;;3.33;;
21527;SDS011;10925;49.102;-0.370;2022-09-09T11:56:24;6.75;;;2.40;;
21527;SDS011;10925;49.102;-0.370;2022-09-09T11:58:57;7.00;;;2.10;;
21527;SDS011;10925;49.102;-0.370;2022-09-09T12:01:30;9.23;;;2.05;;
21527;SDS011;10925;49.102;-0.370;2022-09-09T12:04:04;8.15;;;2.13;;
21527;SDS011;10925;49.102;-0.370;2022-09-09T12:06:32;6.00;;;1.90;;
21527;SDS011;10925;49.102;-0.370;2022-09-09T12:11:45;8.52;;;2.55;;
21527;SDS011;10925;49.102;-0.370;2022-09-09T12:16:56;9.40;;;2.20;;
21527;SDS011;10925;49.102;-0.370;2022-09-09T12:19:22;4.65;;;1.80;;
21527;SDS011;10925;49.102;-0.370;2022-09-09T12:22:05;7.65;;;2.30;;
21527;SDS011;10925;49.102;-0.370;2022-09-09T12:24:34;8.63;;;2.10;;
21527;SDS011;10925;49.102;-0.370;2022-09-09T12:27:40;6.95;;;2.00;;
21527;SDS011;10925;49.102;-0.370;2022-09-09T12:30:09;7.45;;;2.10;;
21527;SDS011;10925;49.102;-0.370;2022-09-09T12:32:37;12.10;;;2.83;;
21527;SDS011;10925;49.102;-0.370;2022-09-09T12:37:45;8.13;;;1.95;;
21527;SDS011;10925;49.102;-0.370;2022-09-09T12:40:22;7.38;;;1.70;;
21527;SDS011;10925;49.102;-0.370;2022-09-09T12:42:49;6.68;;;1.98;;
21527;SDS011;10925;49.102;-0.370;2022-09-09T12:45:17;4.85;;;1.88;;
21527;SDS011;10925;49.102;-0.370;2022-09-09T12:47:46;6.22;;;2.28;;
21527;SDS011;10925;49.102;-0.370;2022-09-09T12:52:47;8.40;;;2.10;;
21527;SDS011;10925;49.102;-0.370;2022-09-09T12:55:18;6.45;;;1.63;;
21527;SDS011;10925;49.102;-0.370;2022-09-09T12:57:46;8.07;;;2.30;;
21527;SDS011;10925;49.102;-0.370;2022-09-09T13:00:16;9.38;;;2.20;;
21527;SDS011;10925;49.102;-0.370;2022-09-09T13:02:53;9.57;;;2.33;;
21527;SDS011;10925;49.102;-0.370;2022-09-09T13:05:22;7.45;;;1.92;;
21527;SDS011;10925;49.102;-0.370;2022-09-09T13:07:49;6.85;;;2.35;;
21527;SDS011;10925;49.102;-0.370;2022-09-09T13:10:26;8.27;;;2.60;;
21527;SDS011;10925;49.102;-0.370;2022-09-09T13:13:13;10.73;;;2.90;;
21527;SDS011;10925;49.102;-0.370;2022-09-09T13:15:47;12.02;;;2.40;;
21527;SDS011;10925;49.102;-0.370;2022-09-09T13:18:15;11.68;;;2.83;;
21527;SDS011;10925;49.102;-0.370;2022-09-09T13:20:46;10.48;;;2.88;;
21527;SDS011;10925;49.102;-0.370;2022-09-09T13:23:13;11.50;;;2.90;;
21527;SDS011;10925;49.102;-0.370;2022-09-09T13:25:39;15.00;;;2.85;;
21527;SDS011;10925;49.102;-0.370;2022-09-09T13:28:05;10.60;;;2.50;;
21527;SDS011;10925;49.102;-0.370;2022-09-09T13:30:54;8.75;;;2.25;;
21527;SDS011;10925;49.102;-0.370;2022-09-09T13:33:37;9.30;;;2.42;;
21527;SDS011;10925;49.102;-0.370;2022-09-09T13:36:08;8.30;;;2.35;;
21527;SDS011;10925;49.102;-0.370;2022-09-09T13:38:36;14.50;;;2.88;;
21527;SDS011;10925;49.102;-0.370;2022-09-09T13:41:04;14.52;;;2.72;;
21527;SDS011;10925;49.102;-0.370;2022-09-09T13:43:31;11.18;;;2.42;;
21527;SDS011;10925;49.102;-0.370;2022-09-09T13:45:59;16.55;;;3.42;;
21527;SDS011;10925;49.102;-0.370;2022-09-09T13:48:26;12.65;;;2.58;;
21527;SDS011;10925;49.102;-0.370;2022-09-09T13:50:54;10.82;;;2.58;;
21527;SDS011;10925;49.102;-0.370;2022-09-09T13:53:20;13.75;;;2.88;;
21527;SDS011;10925;49.102;-0.370;2022-09-09T13:55:47;13.00;;;2.13;;
21527;SDS011;10925;49.102;-0.370;2022-09-09T13:58:18;6.75;;;2.30;;
21527;SDS011;10925;49.102;-0.370;2022-09-09T14:00:44;12.48;;;2.80;;
21527;SDS011;10925;49.102;-0.370;2022-09-09T14:03:10;12.35;;;2.65;;
21527;SDS011;10925;49.102;-0.370;2022-09-09T14:05:36;10.40;;;2.50;;
21527;SDS011;10925;49.102;-0.370;2022-09-09T14:08:04;9.70;;;2.38;;
21527;SDS011;10925;49.102;-0.370;2022-09-09T14:10:32;9.70;;;2.25;;
21527;SDS011;10925;49.102;-0.370;2022-09-09T14:12:58;10.93;;;2.40;;
21527;SDS011;10925;49.102;-0.370;2022-09-09T14:15:24;11.73;;;2.28;;
21527;SDS011;10925;49.102;-0.370;2022-09-09T14:17:51;13.00;;;2.25;;
21527;SDS011;10925;49.102;-0.370;2022-09-09T14:20:18;11.38;;;2.80;;
21527;SDS011;10925;49.102;-0.370;2022-09-09T14:22:45;13.25;;;2.38;;
21527;SDS011;10925;49.102;-0.370;2022-09-09T14:25:12;8.30;;;2.13;;
21527;SDS011;10925;49.102;-0.370;2022-09-09T14:27:39;9.30;;;2.33;;
21527;SDS011;10925;49.102;-0.370;2022-09-09T14:30:06;9.60;;;2.63;;
21527;SDS011;10925;49.102;-0.370;2022-09-09T14:32:33;10.63;;;2.53;;
21527;SDS011;10925;49.102;-0.370;2022-09-09T14:35:00;9.85;;;2.17;;
21527;SDS011;10925;49.102;-0.370;2022-09-09T14:37:27;13.20;;;2.35;;
21527;SDS011;10925;49.102;-0.370;2022-09-09T14:39:52;10.95;;;2.50;;
21527;SDS011;10925;49.102;-0.370;2022-09-09T14:42:19;12.73;;;2.53;;
21527;SDS011;10925;49.102;-0.370;2022-09-09T14:44:44;9.60;;;2.33;;
21527;SDS011;10925;49.102;-0.370;2022-09-09T14:47:10;14.40;;;3.22;;
21527;SDS011;10925;49.102;-0.370;2022-09-09T14:49:36;12.27;;;2.55;;
21527;SDS011;10925;49.102;-0.370;2022-09-09T14:52:05;12.13;;;2.13;;
21527;SDS011;10925;49.102;-0.370;2022-09-09T14:54:32;12.57;;;2.40;;
21527;SDS011;10925;49.102;-0.370;2022-09-09T14:56:59;11.25;;;2.28;;
21527;SDS011;10925;49.102;-0.370;2022-09-09T14:59:26;14.80;;;2.47;;
21527;SDS011;10925;49.102;-0.370;2022-09-09T15:01:52;14.10;;;2.63;;
21527;SDS011;10925;49.102;-0.370;2022-09-09T15:04:18;10.95;;;2.53;;
21527;SDS011;10925;49.102;-0.370;2022-09-09T15:06:45;12.65;;;2.38;;
21527;SDS011;10925;49.102;-0.370;2022-09-09T15:09:13;13.60;;;2.60;;
21527;SDS011;10925;49.102;-0.370;2022-09-09T15:11:40;18.02;;;2.55;;
21527;SDS011;10925;49.102;-0.370;2022-09-09T15:14:07;16.02;;;2.92;;
21527;SDS011;10925;49.102;-0.370;2022-09-09T15:16:34;13.13;;;2.95;;
21527;SDS011;10925;49.102;-0.370;2022-09-09T15:19:01;14.48;;;2.60;;
21527;SDS011;10925;49.102;-0.370;2022-09-09T15:21:30;10.15;;;2.63;;
21527;SDS011;10925;49.102;-0.370;2022-09-09T15:23:57;13.10;;;2.67;;
21527;SDS011;10925;49.102;-0.370;2022-09-09T15:26:24;14.63;;;2.78;;
21527;SDS011;10925;49.102;-0.370;2022-09-09T15:28:52;13.77;;;2.40;;
21527;SDS011;10925;49.102;-0.370;2022-09-09T15:31:19;15.63;;;2.67;;
21527;SDS011;10925;49.102;-0.370;2022-09-09T15:33:53;13.15;;;2.35;;
21527;SDS011;10925;49.102;-0.370;2022-09-09T15:36:34;17.30;;;2.95;;
21527;SDS011;10925;49.102;-0.370;2022-09-09T15:39:01;14.55;;;2.55;;
21527;SDS011;10925;49.102;-0.370;2022-09-09T15:41:28;12.73;;;2.75;;
21527;SDS011;10925;49.102;-0.370;2022-09-09T15:43:56;15.73;;;2.50;;
21527;SDS011;10925;49.102;-0.370;2022-09-09T15:46:28;9.73;;;2.50;;
21527;SDS011;10925;49.102;-0.370;2022-09-09T15:49:02;15.15;;;2.63;;
21527;SDS011;10925;49.102;-0.370;2022-09-09T15:51:28;12.10;;;2.30;;
21527;SDS011;10925;49.102;-0.370;2022-09-09T15:54:11;14.35;;;3.13;;
21527;SDS011;10925;49.102;-0.370;2022-09-09T15:56:38;10.23;;;2.20;;
21527;SDS011;10925;49.102;-0.370;2022-09-09T15:59:05;18.45;;;2.80;;
21527;SDS011;10925;49.102;-0.370;2022-09-09T16:01:32;14.10;;;2.55;;
21527;SDS011;10925;49.102;-0.370;2022-09-09T16:03:59;21.00;;;3.40;;
21527;SDS011;10925;49.102;-0.370;2022-09-09T16:06:25;16.27;;;2.75;;
21527;SDS011;10925;49.102;-0.370;2022-09-09T16:08:53;14.85;;;2.90;;
21527;SDS011;10925;49.102;-0.370;2022-09-09T16:11:21;19.38;;;2.80;;
21527;SDS011;10925;49.102;-0.370;2022-09-09T16:13:49;15.48;;;2.50;;
21527;SDS011;10925;49.102;-0.370;2022-09-09T16:16:17;17.15;;;3.25;;
21527;SDS011;10925;49.102;-0.370;2022-09-09T16:18:46;14.85;;;3.03;;
21527;SDS011;10925;49.102;-0.370;2022-09-09T16:21:16;19.00;;;2.70;;
21527;SDS011;10925;49.102;-0.370;2022-09-09T16:23:45;11.25;;;2.88;;
21527;SDS011;10925;49.102;-0.370;2022-09-09T16:26:19;18.17;;;2.92;;
21527;SDS011;10925;49.102;-0.370;2022-09-09T16:28:45;13.13;;;3.15;;
21527;SDS011;10925;49.102;-0.370;2022-09-09T16:31:20;17.25;;;2.72;;
21527;SDS011;10925;49.102;-0.370;2022-09-09T16:33:48;15.70;;;3.15;;
21527;SDS011;10925;49.102;-0.370;2022-09-09T16:36:17;13.13;;;2.75;;
21527;SDS011;10925;49.102;-0.370;2022-09-09T16:38:44;18.05;;;3.08;;
21527;SDS011;10925;49.102;-0.370;2022-09-09T16:41:12;12.55;;;3.20;;
21527;SDS011;10925;49.102;-0.370;2022-09-09T16:43:37;15.55;;;3.00;;
21527;SDS011;10925;49.102;-0.370;2022-09-09T16:46:09;11.10;;;2.20;;
21527;SDS011;10925;49.102;-0.370;2022-09-09T16:48:36;15.80;;;2.72;;
21527;SDS011;10925;49.102;-0.370;2022-09-09T16:51:04;15.02;;;2.88;;
21527;SDS011;10925;49.102;-0.370;2022-09-09T16:53:30;14.25;;;2.42;;
21527;SDS011;10925;49.102;-0.370;2022-09-09T16:55:56;12.98;;;2.33;;